S/y Tristan — J8Y2726 — position and weather

sailwx.info

Track history (hours):
 
Tides and Currents Weather Stations Pressure Air Temp Water Temp Dewpoint Dewpoint Depression Visibility Wind Speed Wind Dir Waves Ship Positions

S/y Tristan

Last reported at 2017-Oct-17 22:00 UTC. Time now 2017-Oct-17 22:27 UTC.
Position N 45°36' W 122°40'.

Length 33 m; draft 3 m.

Type: Sailing vessel. MMSI: 375009000.

Date/timePositionNaut miles runAvg speedWind from/ knotsBaromVisibWave heightAir tempDewpointWater temp
2017-Oct-17 22:00N 45°36' W 122°40'0 0.0
2017-Oct-17 21:30N 45°36' W 122°40'0 0.0
2017-Oct-17 21:00N 45°36' W 122°40'0 0.0
2017-Oct-17 20:30N 45°36' W 122°40'0 0.0
2017-Oct-17 20:00N 45°36' W 122°40'0 0.0
2017-Oct-17 19:30N 45°36' W 122°40'0 0.0
2017-Oct-17 19:00N 45°36' W 122°40'0 0.0
2017-Oct-17 18:31N 45°36' W 122°40'0 0.0
2017-Oct-17 18:00N 45°36' W 122°40'0 0.0
2017-Oct-17 17:30N 45°36' W 122°40'0 0.0
2017-Oct-17 17:01N 45°36' W 122°40'0 0.0
2017-Oct-17 16:30N 45°36' W 122°40'0 0.0
2017-Oct-17 16:00N 45°36' W 122°40'0 0.0
2017-Oct-17 15:30N 45°36' W 122°40'0 0.0
2017-Oct-17 15:00N 45°36' W 122°40'0 0.0
2017-Oct-17 14:30N 45°36' W 122°40'0 0.0
2017-Oct-17 14:00N 45°36' W 122°40'0 0.0
2017-Oct-17 13:31N 45°36' W 122°40'0 0.0
2017-Oct-17 13:00N 45°36' W 122°40'0 0.0
2017-Oct-17 12:30N 45°36' W 122°40'0 0.0
2017-Oct-17 12:00N 45°36' W 122°40'0 0.0
2017-Oct-17 11:30N 45°36' W 122°40'0 0.0
2017-Oct-17 11:00N 45°36' W 122°40'0 0.0
2017-Oct-17 10:30N 45°36' W 122°40'0 0.0
2017-Oct-17 10:00N 45°36' W 122°40'0 0.0
2017-Oct-17 09:30N 45°36' W 122°40'0 0.0
2017-Oct-17 09:00N 45°36' W 122°40'0 0.0
2017-Oct-17 08:30N 45°36' W 122°40'0 0.0
2017-Oct-17 08:00N 45°36' W 122°40'0 0.0
2017-Oct-17 07:31N 45°36' W 122°40'0 0.0
2017-Oct-17 07:00N 45°36' W 122°40'0 0.0
2017-Oct-17 06:30N 45°36' W 122°40'0 0.0
2017-Oct-17 06:00N 45°36' W 122°40'0 0.0
2017-Oct-17 05:30N 45°36' W 122°40'0 0.0
2017-Oct-17 05:00N 45°36' W 122°40'0 0.0
2017-Oct-17 04:30N 45°36' W 122°40'0 0.0
2017-Oct-17 04:00N 45°36' W 122°40'0 0.0
2017-Oct-17 03:30N 45°36' W 122°40'0 0.0
2017-Oct-17 03:00N 45°36' W 122°40'0 0.0
2017-Oct-17 02:30N 45°36' W 122°40'0 0.0
2017-Oct-17 02:00N 45°36' W 122°40'0 0.6
2017-Oct-17 01:30N 45°37' W 122°40'1 2.0
2017-Oct-17 01:00N 45°37' W 122°41'0 0.1
2017-Oct-17 00:30N 45°37' W 122°41'0 0.0
2017-Oct-17 00:00N 45°37' W 122°41'0 0.0
2017-Oct-16 23:31N 45°37' W 122°41'0 0.0
2017-Oct-16 23:00N 45°37' W 122°41'0 0.0
2017-Oct-16 22:30N 45°37' W 122°41'2 4.4
2017-Oct-16 22:00N 45°38' W 122°44'4 8.0
2017-Oct-16 21:30N 45°42' W 122°46'5 9.1
2017-Oct-16 21:00N 45°47' W 122°46'4 8.7
2017-Oct-16 20:30N 45°51' W 122°47'5 8.9
2017-Oct-16 20:00N 45°55' W 122°48'4 8.7
2017-Oct-16 19:30N 45°59' W 122°51'4 8.6
2017-Oct-16 19:00N 46°03' W 122°53'4 8.4
2017-Oct-16 18:31N 46°06' W 122°57'4 8.5
2017-Oct-16 18:01N 46°09' W 123°02'4 8.4
2017-Oct-16 17:30N 46°11' W 123°07'4 8.1
2017-Oct-16 17:00N 46°10' W 123°13'4 8.0
2017-Oct-16 16:31N 46°09' W 123°18'4 7.5
2017-Oct-16 16:00N 46°09' W 123°24'4 7.1
2017-Oct-16 15:31N 46°13' W 123°26'4 7.3
2017-Oct-16 15:00N 46°16' W 123°28'4 7.5
2017-Oct-16 14:30N 46°15' W 123°33'0 0.5
2017-Oct-16 13:30N 46°15' W 123°34'0 0.0
2017-Oct-16 13:00N 46°15' W 123°34'0 0.0
2017-Oct-16 12:30N 46°15' W 123°34'0 0.0
2017-Oct-16 12:01N 46°15' W 123°34'0 0.0
2017-Oct-16 11:30N 46°15' W 123°34'0 0.0
2017-Oct-16 11:00N 46°15' W 123°34'0 0.0
2017-Oct-16 10:30N 46°15' W 123°34'0 0.0
2017-Oct-16 10:00N 46°15' W 123°34'0 0.1
2017-Oct-16 09:30N 46°15' W 123°34'0 0.0
2017-Oct-16 09:00N 46°15' W 123°34'0 0.1
2017-Oct-16 08:30N 46°15' W 123°34'0 0.0
2017-Oct-16 08:00N 46°15' W 123°34'0 0.1
2017-Oct-16 07:22N 46°15' W 123°34'0 0.0
2017-Oct-16 07:01N 46°15' W 123°34'0 0.0
2017-Oct-16 06:30N 46°15' W 123°34'0 0.0
2017-Oct-16 06:00N 46°15' W 123°34'0 0.0
2017-Oct-16 05:30N 46°15' W 123°34'0 0.0
2017-Oct-16 05:01N 46°15' W 123°34'0 0.0
2017-Oct-16 04:30N 46°15' W 123°34'0 0.0
2017-Oct-16 04:00N 46°15' W 123°34'0 0.1
2017-Oct-16 03:31N 46°15' W 123°34'0 0.0
2017-Oct-16 03:00N 46°15' W 123°34'0 0.0
2017-Oct-16 02:30N 46°15' W 123°34'0 0.1
2017-Oct-16 02:00N 46°15' W 123°34'3 6.3
2017-Oct-16 01:30N 46°16' W 123°38'4 7.7
2017-Oct-16 01:00N 46°14' W 123°43'4 7.6
2017-Oct-16 00:30N 46°12' W 123°48'3 6.6
2017-Oct-16 00:00N 46°11' W 123°53'3 6.1
2017-Oct-15 23:30N 46°13' W 123°57'3 6.0
2017-Oct-15 23:00N 46°15' W 124°00'3 5.5
2017-Oct-15 22:30N 46°15' W 124°04'2 4.8
2017-Oct-15 22:00N 46°15' W 124°07'5 9.4
2017-Oct-15 21:30N 46°20' W 124°08'4 8.8
2017-Oct-15 21:00N 46°24' W 124°09'4 8.0
2017-Oct-15 20:30N 46°28' W 124°11'4 7.8
2017-Oct-15 20:00N 46°31' W 124°12'5 7.8
2017-Oct-15 19:25N 46°36' W 124°13'3 7.5
2017-Oct-15 19:00N 46°39' W 124°14'4 8.0
2017-Oct-15 18:30N 46°43' W 124°14'4 8.5
2017-Oct-15 18:00N 46°47' W 124°13'4 8.3
2017-Oct-15 17:30N 46°51' W 124°12'4 7.3
2017-Oct-15 17:00N 46°55' W 124°10'4 6.6
2017-Oct-15 16:28N 46°56' W 124°05'0 0.1
2017-Oct-15 16:00N 46°56' W 124°05'0 0.0
2017-Oct-15 15:24N 46°56' W 124°05'0 0.0
2017-Oct-15 14:53N 46°56' W 124°05'0 0.0
2017-Oct-15 13:53N 46°56' W 124°05'0 0.0
2017-Oct-15 13:29N 46°56' W 124°05'0 0.0
2017-Oct-15 13:00N 46°56' W 124°05'0 0.0
2017-Oct-15 12:29N 46°56' W 124°05'0 0.1
2017-Oct-15 12:00N 46°56' W 124°05'0 0.0
2017-Oct-15 11:28N 46°56' W 124°05'0 0.0
2017-Oct-15 10:57N 46°56' W 124°05'0 0.0
2017-Oct-15 10:29N 46°56' W 124°05'0 0.0
2017-Oct-15 09:46N 46°56' W 124°05'0 0.0
2017-Oct-15 09:29N 46°56' W 124°05'0 0.0
2017-Oct-15 08:49N 46°56' W 124°05'0 0.0
2017-Oct-15 04:19N 46°56' W 124°05'0 0.0
2017-Oct-15 03:57N 46°56' W 124°05'2 1.0
2017-Oct-15 02:03N 46°55' W 124°08'0 0.1
2017-Oct-15 01:41N 46°55' W 124°08'3 9.3
2017-Oct-15 01:20N 46°55' W 124°12'3 8.1
2017-Oct-15 01:00N 46°58' W 124°15'4 8.2
2017-Oct-15 00:30N 47°01' W 124°17'4 8.1
2017-Oct-15 00:00N 47°05' W 124°19'4 8.1
2017-Oct-14 23:30N 47°09' W 124°20'65 7.6
2017-Oct-14 14:52N 48°12' W 124°48'3 7.5
2017-Oct-14 14:30N 48°15' W 124°48'4 7.4
2017-Oct-14 14:00N 48°18' W 124°47'4 7.5
2017-Oct-14 13:26N 48°22' W 124°47'3 6.5
2017-Oct-14 13:00N 48°24' W 124°43'4 8.4
2017-Oct-14 12:30N 48°24' W 124°37'2 3.1
2017-Oct-14 12:00N 48°22' W 124°37'0 0.0
2017-Oct-14 11:30N 48°22' W 124°37'0 0.0
2017-Oct-14 11:00N 48°22' W 124°37'0 0.0
2017-Oct-14 10:30N 48°22' W 124°37'0 0.0
2017-Oct-14 10:00N 48°22' W 124°37'0 0.0
2017-Oct-14 09:30N 48°22' W 124°37'0 0.0
2017-Oct-14 09:00N 48°22' W 124°37'0 0.0
2017-Oct-14 08:30N 48°22' W 124°37'0 0.0
2017-Oct-14 08:00N 48°22' W 124°37'0 0.0
2017-Oct-14 07:30N 48°22' W 124°37'0 0.0
2017-Oct-14 07:00N 48°22' W 124°37'0 0.0
2017-Oct-14 06:30N 48°22' W 124°37'0 0.0
2017-Oct-14 06:00N 48°22' W 124°37'0 0.0
2017-Oct-14 05:30N 48°22' W 124°37'0 0.0
2017-Oct-14 05:00N 48°22' W 124°37'0 0.0
2017-Oct-14 04:30N 48°22' W 124°37'0 0.0
2017-Oct-14 04:00N 48°22' W 124°37'0 0.0
2017-Oct-14 03:30N 48°22' W 124°37'0 0.0
2017-Oct-14 03:00N 48°22' W 124°37'0 0.0
2017-Oct-14 02:30N 48°22' W 124°37'0 0.0
2017-Oct-14 02:00N 48°22' W 124°37'0 0.1
2017-Oct-14 01:28N 48°22' W 124°37'0 0.0
2017-Oct-14 01:00N 48°22' W 124°37'0 0.0
2017-Oct-14 00:28N 48°22' W 124°37'0 0.7
2017-Oct-13 23:59N 48°22' W 124°36'4 7.2
2017-Oct-13 23:28N 48°22' W 124°30'4 8.7
2017-Oct-13 23:00N 48°21' W 124°25'5 9.1
2017-Oct-13 22:30N 48°19' W 124°18'4 8.8
2017-Oct-13 22:00N 48°17' W 124°12'4 8.6
2017-Oct-13 21:29N 48°15' W 124°06'4 8.5
2017-Oct-13 21:00N 48°14' W 124°00'5 8.6
2017-Oct-13 20:23N 48°15' W 123°52'3 8.3
2017-Oct-13 19:58N 48°14' W 123°47'4 7.7
2017-Oct-13 19:30N 48°14' W 123°42'4 7.3
2017-Oct-13 18:59N 48°15' W 123°37'3 6.6
2017-Oct-13 18:30N 48°17' W 123°33'4 7.1
2017-Oct-13 17:57N 48°20' W 123°29'3 7.4
2017-Oct-13 17:30N 48°22' W 123°25'3 6.6
2017-Oct-13 17:00N 48°23' W 123°21'3 5.4
2017-Oct-13 16:30N 48°25' W 123°17'3 6.8
2017-Oct-13 16:00N 48°28' W 123°15'3 6.9
2017-Oct-13 15:30N 48°31' W 123°14'4 7.3
2017-Oct-13 15:00N 48°35' W 123°13'3 6.8
2017-Oct-13 14:30N 48°38' W 123°11'1 2.2
2017-Oct-13 14:00N 48°37' W 123°10'0 0.1
2017-Oct-13 13:30N 48°37' W 123°10'0 0.0
2017-Oct-13 13:00N 48°37' W 123°10'0 0.0
2017-Oct-13 12:30N 48°37' W 123°10'0 0.0
2017-Oct-13 12:00N 48°37' W 123°10'0 0.0
2017-Oct-13 11:30N 48°37' W 123°10'0 0.0
2017-Oct-13 11:00N 48°37' W 123°10'0 0.0
2017-Oct-13 10:30N 48°37' W 123°10'0 0.0
2017-Oct-13 10:00N 48°37' W 123°10'0 0.0
2017-Oct-13 09:30N 48°37' W 123°10'0 0.0
2017-Oct-13 09:00N 48°37' W 123°10'0 0.0
2017-Oct-13 08:30N 48°37' W 123°10'0 0.0
2017-Oct-13 08:00N 48°37' W 123°10'0 0.0
2017-Oct-13 07:30N 48°37' W 123°10'0 0.1
2017-Oct-13 07:00N 48°37' W 123°10'0 0.1
2017-Oct-13 06:30N 48°37' W 123°10'0 0.0
2017-Oct-13 06:00N 48°37' W 123°10'0 0.0
2017-Oct-13 05:30N 48°37' W 123°10'0 0.1
2017-Oct-13 05:00N 48°37' W 123°10'0 0.0
2017-Oct-13 04:30N 48°37' W 123°10'0 0.0
2017-Oct-13 04:00N 48°37' W 123°10'0 0.0
2017-Oct-13 03:30N 48°37' W 123°10'0 0.0
2017-Oct-13 03:00N 48°37' W 123°10'0 0.0
2017-Oct-13 02:30N 48°37' W 123°10'0 0.0
2017-Oct-13 02:00N 48°37' W 123°10'0 0.0
2017-Oct-13 01:30N 48°37' W 123°10'0 0.0
2017-Oct-13 01:00N 48°37' W 123°10'0 0.0
2017-Oct-13 00:30N 48°37' W 123°10'0 0.0
2017-Oct-13 00:00N 48°37' W 123°10'0 0.0
2017-Oct-12 23:30N 48°37' W 123°10'0 0.0
2017-Oct-12 23:00N 48°37' W 123°10'0 0.0
2017-Oct-12 22:30N 48°37' W 123°10'0 0.0
2017-Oct-12 22:00N 48°37' W 123°10'0 0.0
2017-Oct-12 21:30N 48°37' W 123°10'0 0.1
2017-Oct-12 21:00N 48°37' W 123°10'0 0.0
2017-Oct-12 20:30N 48°37' W 123°10'0 0.0
2017-Oct-12 20:00N 48°37' W 123°10'0 0.0
2017-Oct-12 19:30N 48°37' W 123°10'0 0.1
2017-Oct-12 19:00N 48°37' W 123°10'0 0.0
2017-Oct-12 18:30N 48°37' W 123°10'0 0.0
2017-Oct-12 18:00N 48°37' W 123°10'0 0.0
2017-Oct-12 17:30N 48°37' W 123°10'0 0.1
2017-Oct-12 17:00N 48°37' W 123°10'0 0.1
2017-Oct-12 16:30N 48°37' W 123°10'0 0.0
2017-Oct-12 16:00N 48°37' W 123°10'0 0.0
2017-Oct-12 15:30N 48°37' W 123°10'0 0.0
2017-Oct-12 15:00N 48°37' W 123°10'0 0.0
2017-Oct-12 14:30N 48°37' W 123°10'0 0.0
2017-Oct-12 14:00N 48°37' W 123°10'0 0.1
2017-Oct-12 13:30N 48°37' W 123°10'0 0.1
2017-Oct-12 13:00N 48°37' W 123°10'0 0.0
2017-Oct-12 12:30N 48°37' W 123°10'0 0.0
2017-Oct-12 12:00N 48°37' W 123°10'0 0.0
2017-Oct-12 11:30N 48°37' W 123°10'0 0.0
2017-Oct-12 11:00N 48°37' W 123°10'0 0.0
2017-Oct-12 10:30N 48°37' W 123°10'0 0.0
2017-Oct-12 10:00N 48°37' W 123°10'0 0.0
2017-Oct-12 09:30N 48°37' W 123°10'0 0.0
2017-Oct-12 09:00N 48°37' W 123°10'0 0.0
2017-Oct-12 08:30N 48°37' W 123°10'0 0.0
2017-Oct-12 08:00N 48°37' W 123°10'0 0.0
2017-Oct-12 07:30N 48°37' W 123°10'0 0.0
2017-Oct-12 07:00N 48°37' W 123°10'0 0.0
2017-Oct-12 06:30N 48°37' W 123°10'0 0.0
2017-Oct-12 06:00N 48°37' W 123°10'0 0.0
2017-Oct-12 05:30N 48°37' W 123°10'0 0.0
2017-Oct-12 05:00N 48°37' W 123°10'0 0.0
2017-Oct-12 04:30N 48°37' W 123°10'0 0.0
2017-Oct-12 04:00N 48°37' W 123°10'0 0.0
2017-Oct-12 03:30N 48°37' W 123°10'0 0.0
2017-Oct-12 03:00N 48°37' W 123°10'0 0.0
2017-Oct-12 02:30N 48°37' W 123°10'0 0.0
2017-Oct-12 02:00N 48°37' W 123°10'0 0.0
2017-Oct-12 01:30N 48°37' W 123°10'0 0.0
2017-Oct-12 01:00N 48°37' W 123°10'0 0.0
2017-Oct-12 00:30N 48°37' W 123°10'0 0.1
2017-Oct-12 00:00N 48°37' W 123°10'0 0.1
2017-Oct-11 23:30N 48°37' W 123°10'0 0.0
2017-Oct-11 23:00N 48°37' W 123°10'0 0.1
2017-Oct-11 22:30N 48°37' W 123°10'0 0.0
2017-Oct-11 22:00N 48°37' W 123°10'0 0.1
2017-Oct-11 21:30N 48°37' W 123°10'0 0.0
2017-Oct-11 21:00N 48°37' W 123°10'0 0.1
2017-Oct-11 20:30N 48°37' W 123°10'0 0.0
2017-Oct-11 20:00N 48°37' W 123°10'0 0.0
2017-Oct-11 19:30N 48°37' W 123°10'0 0.0
2017-Oct-11 19:00N 48°37' W 123°10'0 0.0
2017-Oct-11 18:30N 48°37' W 123°10'0 0.0
2017-Oct-11 18:00N 48°37' W 123°10'0 0.0
2017-Oct-11 17:30N 48°37' W 123°10'0 0.1
2017-Oct-11 16:59N 48°37' W 123°10'0 0.0
2017-Oct-11 00:00N 48°37' W 123°10'0 0.0
2017-Oct-10 23:30N 48°37' W 123°10'0 0.0
2017-Oct-10 23:00N 48°37' W 123°10'0 0.0
2017-Oct-10 22:30N 48°37' W 123°10'0 0.0
2017-Oct-10 22:00N 48°37' W 123°10'0 0.0
2017-Oct-10 21:30N 48°37' W 123°10'0 0.0
2017-Oct-10 21:00N 48°37' W 123°10'0 0.0
2017-Oct-10 20:30N 48°37' W 123°10'0 0.0
2017-Oct-10 20:00N 48°37' W 123°10'0 0.1
2017-Oct-10 19:30N 48°37' W 123°10'0 0.1
2017-Oct-10 19:00N 48°37' W 123°10'0 0.0
2017-Oct-10 18:30N 48°37' W 123°10'0 0.0
2017-Oct-10 18:00N 48°37' W 123°10'0 0.1
2017-Oct-10 17:30N 48°37' W 123°10'0 0.1
2017-Oct-10 17:00N 48°37' W 123°10'0 0.1
2017-Oct-10 16:30N 48°37' W 123°10'0 0.0
2017-Oct-10 16:00N 48°37' W 123°10'0 0.0
2017-Oct-10 15:30N 48°37' W 123°10'0 0.0
2017-Oct-10 15:00N 48°37' W 123°10'0 0.0
2017-Oct-10 14:00N 48°37' W 123°10'0 0.0
2017-Oct-10 13:30N 48°37' W 123°10'0 0.0
2017-Oct-10 13:00N 48°37' W 123°10'0 0.0
2017-Oct-10 12:30N 48°37' W 123°10'0 0.0
2017-Oct-10 12:00N 48°37' W 123°10'0 0.0
2017-Oct-10 11:30N 48°37' W 123°10'0 0.0
2017-Oct-10 11:00N 48°37' W 123°10'0 0.0
2017-Oct-10 10:30N 48°37' W 123°10'0 0.0
2017-Oct-10 10:00N 48°37' W 123°10'0 0.0
2017-Oct-10 09:30N 48°37' W 123°10'0 0.0
2017-Oct-10 09:00N 48°37' W 123°10'0 0.0
2017-Oct-10 08:30N 48°37' W 123°10'0 0.0
2017-Oct-10 08:00N 48°37' W 123°10'0 0.0
2017-Oct-10 07:30N 48°37' W 123°10'0 0.0
2017-Oct-10 07:00N 48°37' W 123°10'0 0.0
2017-Oct-10 06:30N 48°37' W 123°10'0 0.0
2017-Oct-10 06:00N 48°37' W 123°10'0 0.0
2017-Oct-10 05:30N 48°37' W 123°10'0 0.0
2017-Oct-10 05:00N 48°37' W 123°10'0 0.0
2017-Oct-10 04:30N 48°37' W 123°10'0 0.0
2017-Oct-10 04:00N 48°37' W 123°10'0 0.0
2017-Oct-10 03:30N 48°37' W 123°10'0 0.0
2017-Oct-10 03:00N 48°37' W 123°10'0 0.0
2017-Oct-10 02:30N 48°37' W 123°10'0 0.0
2017-Oct-10 02:00N 48°37' W 123°10'0 0.0
2017-Oct-10 01:30N 48°37' W 123°10'0 0.0
2017-Oct-10 01:00N 48°37' W 123°10'0 0.0
2017-Oct-10 00:30N 48°37' W 123°10'0 0.0
2017-Oct-10 00:00N 48°37' W 123°10'0 0.0
2017-Oct-09 23:30N 48°37' W 123°10'0 0.0
2017-Oct-09 23:00N 48°37' W 123°10'0 0.0
2017-Oct-09 22:30N 48°37' W 123°10'0 0.0
2017-Oct-09 22:00N 48°37' W 123°10'0 0.0
2017-Oct-09 21:29N 48°37' W 123°10'0 0.0
2017-Oct-09 21:00N 48°37' W 123°10'0 0.1
2017-Oct-09 20:30N 48°37' W 123°10'0 0.0
2017-Oct-09 20:00N 48°37' W 123°10'0 0.1
2017-Oct-09 19:30N 48°37' W 123°10'0 0.0
2017-Oct-09 19:00N 48°37' W 123°10'0 0.0
2017-Oct-09 18:30N 48°37' W 123°10'0 0.0
2017-Oct-09 18:00N 48°37' W 123°10'0 0.1
2017-Oct-09 17:30N 48°37' W 123°10'0 0.1
2017-Oct-09 17:00N 48°37' W 123°10'0 0.0
2017-Oct-09 16:30N 48°37' W 123°10'0 0.0
2017-Oct-09 16:00N 48°37' W 123°10'0 0.0
2017-Oct-09 15:30N 48°37' W 123°10'0 0.0
2017-Oct-09 14:59N 48°37' W 123°10'0 0.0
2017-Oct-09 14:30N 48°37' W 123°10'0 0.0
2017-Oct-09 14:00N 48°37' W 123°10'0 0.0
2017-Oct-09 13:30N 48°37' W 123°10'0 0.0
2017-Oct-09 13:00N 48°37' W 123°10'0 0.1
2017-Oct-09 12:30N 48°37' W 123°10'0 0.1
2017-Oct-09 12:00N 48°37' W 123°10'0 0.0
2017-Oct-09 11:30N 48°37' W 123°10'0 0.0
2017-Oct-09 11:00N 48°37' W 123°10'0 0.0
2017-Oct-09 10:30N 48°37' W 123°10'0 0.0
2017-Oct-09 10:00N 48°37' W 123°10'0 0.0
2017-Oct-09 09:30N 48°37' W 123°10'0 0.0
2017-Oct-09 09:00N 48°37' W 123°10'0 0.0
2017-Oct-09 08:30N 48°37' W 123°10'0 0.0
2017-Oct-09 08:00N 48°37' W 123°10'0 0.0
2017-Oct-09 07:30N 48°37' W 123°10'0 0.0
2017-Oct-09 07:00N 48°37' W 123°10'0 0.0
2017-Oct-09 06:30N 48°37' W 123°10'0 0.0
2017-Oct-09 06:00N 48°37' W 123°10'0 0.0
2017-Oct-09 05:30N 48°37' W 123°10'0 0.0
2017-Oct-09 05:00N 48°37' W 123°10'0 0.0
2017-Oct-09 04:30N 48°37' W 123°10'0 0.0
2017-Oct-09 04:00N 48°37' W 123°10'0 0.0
2017-Oct-09 03:30N 48°37' W 123°10'0 0.0
2017-Oct-09 03:00N 48°37' W 123°10'0 0.1
2017-Oct-09 02:30N 48°37' W 123°10'0 0.1
2017-Oct-09 02:00N 48°37' W 123°10'0 0.0
2017-Oct-09 01:30N 48°37' W 123°10'0 0.0
2017-Oct-09 01:00N 48°37' W 123°10'0 0.0
2017-Oct-09 00:30N 48°37' W 123°10'0 0.0
2017-Oct-09 00:00N 48°37' W 123°10'0 0.0
2017-Oct-08 23:30N 48°37' W 123°10'0 0.0
2017-Oct-08 23:00N 48°37' W 123°10'0 0.0
2017-Oct-08 22:30N 48°37' W 123°10'0 0.0
2017-Oct-08 22:00N 48°37' W 123°10'0 0.0
2017-Oct-08 21:30N 48°37' W 123°10'0 0.0
2017-Oct-08 21:00N 48°37' W 123°10'0 0.0
2017-Oct-08 20:30N 48°37' W 123°10'0 0.0
2017-Oct-08 20:00N 48°37' W 123°10'0 0.0
2017-Oct-08 19:30N 48°37' W 123°10'0 0.0
2017-Oct-08 19:00N 48°37' W 123°10'0 0.0
2017-Oct-08 18:30N 48°37' W 123°10'0 0.0
2017-Oct-08 17:59N 48°37' W 123°10'0 0.0
2017-Oct-08 17:30N 48°37' W 123°10'0 0.0
2017-Oct-08 17:00N 48°37' W 123°10'0 0.0
2017-Oct-08 16:30N 48°37' W 123°10'0 0.1
2017-Oct-08 16:00N 48°37' W 123°10'0 0.1
2017-Oct-08 15:30N 48°37' W 123°10'0 0.1
2017-Oct-08 15:00N 48°37' W 123°10'0 0.0
2017-Oct-08 14:30N 48°37' W 123°10'0 0.1
2017-Oct-08 14:00N 48°37' W 123°10'0 0.1
2017-Oct-08 13:30N 48°37' W 123°10'0 0.0
2017-Oct-08 13:00N 48°37' W 123°10'0 0.0
2017-Oct-08 12:30N 48°37' W 123°10'0 0.0
2017-Oct-08 12:00N 48°37' W 123°10'0 0.1
2017-Oct-08 11:30N 48°37' W 123°10'0 0.1
2017-Oct-08 11:00N 48°37' W 123°10'0 0.0
2017-Oct-08 10:30N 48°37' W 123°10'0 0.0
2017-Oct-08 10:00N 48°37' W 123°10'0 0.0
2017-Oct-08 09:30N 48°37' W 123°10'0 0.0
2017-Oct-08 09:00N 48°37' W 123°10'0 0.0
2017-Oct-08 08:30N 48°37' W 123°10'0 0.0
2017-Oct-08 08:00N 48°37' W 123°10'0 0.1
2017-Oct-08 07:30N 48°37' W 123°10'0 0.0
2017-Oct-08 07:00N 48°37' W 123°10'0 0.0
2017-Oct-08 06:30N 48°37' W 123°10'0 0.0
2017-Oct-08 06:00N 48°37' W 123°10'0 0.0
2017-Oct-08 05:30N 48°37' W 123°10'0 0.1
2017-Oct-08 05:00N 48°37' W 123°10'0 0.0
2017-Oct-08 04:30N 48°37' W 123°10'0 0.1
2017-Oct-08 04:00N 48°37' W 123°10'0 0.0
2017-Oct-08 03:30N 48°37' W 123°10'0 0.0
2017-Oct-08 03:00N 48°37' W 123°10'0 0.0
2017-Oct-08 02:30N 48°37' W 123°10'0 0.0
2017-Oct-08 02:00N 48°37' W 123°10'0 0.0
2017-Oct-08 01:30N 48°37' W 123°10'0 0.1
2017-Oct-08 01:00N 48°37' W 123°10'0 0.0
2017-Oct-08 00:30N 48°37' W 123°10'0 0.0
2017-Oct-08 00:00N 48°37' W 123°10'0 0.0
2017-Oct-07 23:30N 48°37' W 123°10'0 0.0
2017-Oct-07 23:00N 48°37' W 123°10'0 0.0
2017-Oct-07 22:30N 48°37' W 123°10'0 0.0
2017-Oct-07 22:00N 48°37' W 123°10'  
Track history (hours):
 
Tides and Currents Weather Stations Pressure Air Temp Water Temp Dewpoint Dewpoint Depression Visibility Wind Speed Wind Dir Waves Ship Positions

S/y Tristan

Last reported at 2017-Oct-17 22:00 UTC. Time now 2017-Oct-17 22:27 UTC.
Position N 45°36' W 122°40'.

Length 33 m; draft 3 m.

Type: Sailing vessel. MMSI: 375009000.

Date/timePositionNaut miles runAvg speedWind from/ knotsBaromVisibWave heightAir tempDewpointWater temp
2017-Oct-17 22:00N 45°36' W 122°40'0 0.0
2017-Oct-17 21:30N 45°36' W 122°40'0 0.0
2017-Oct-17 21:00N 45°36' W 122°40'0 0.0
2017-Oct-17 20:30N 45°36' W 122°40'0 0.0
2017-Oct-17 20:00N 45°36' W 122°40'0 0.0
2017-Oct-17 19:30N 45°36' W 122°40'0 0.0
2017-Oct-17 19:00N 45°36' W 122°40'0 0.0
2017-Oct-17 18:31N 45°36' W 122°40'0 0.0
2017-Oct-17 18:00N 45°36' W 122°40'0 0.0
2017-Oct-17 17:30N 45°36' W 122°40'0 0.0
2017-Oct-17 17:01N 45°36' W 122°40'0 0.0
2017-Oct-17 16:30N 45°36' W 122°40'0 0.0
2017-Oct-17 16:00N 45°36' W 122°40'0 0.0
2017-Oct-17 15:30N 45°36' W 122°40'0 0.0
2017-Oct-17 15:00N 45°36' W 122°40'0 0.0
2017-Oct-17 14:30N 45°36' W 122°40'0 0.0
2017-Oct-17 14:00N 45°36' W 122°40'0 0.0
2017-Oct-17 13:31N 45°36' W 122°40'0 0.0
2017-Oct-17 13:00N 45°36' W 122°40'0 0.0
2017-Oct-17 12:30N 45°36' W 122°40'0 0.0
2017-Oct-17 12:00N 45°36' W 122°40'0 0.0
2017-Oct-17 11:30N 45°36' W 122°40'0 0.0
2017-Oct-17 11:00N 45°36' W 122°40'0 0.0
2017-Oct-17 10:30N 45°36' W 122°40'0 0.0
2017-Oct-17 10:00N 45°36' W 122°40'0 0.0
2017-Oct-17 09:30N 45°36' W 122°40'0 0.0
2017-Oct-17 09:00N 45°36' W 122°40'0 0.0
2017-Oct-17 08:30N 45°36' W 122°40'0 0.0
2017-Oct-17 08:00N 45°36' W 122°40'0 0.0
2017-Oct-17 07:31N 45°36' W 122°40'0 0.0
2017-Oct-17 07:00N 45°36' W 122°40'0 0.0
2017-Oct-17 06:30N 45°36' W 122°40'0 0.0
2017-Oct-17 06:00N 45°36' W 122°40'0 0.0
2017-Oct-17 05:30N 45°36' W 122°40'0 0.0
2017-Oct-17 05:00N 45°36' W 122°40'0 0.0
2017-Oct-17 04:30N 45°36' W 122°40'0 0.0
2017-Oct-17 04:00N 45°36' W 122°40'0 0.0
2017-Oct-17 03:30N 45°36' W 122°40'0 0.0
2017-Oct-17 03:00N 45°36' W 122°40'0 0.0
2017-Oct-17 02:30N 45°36' W 122°40'0 0.0
2017-Oct-17 02:00N 45°36' W 122°40'0 0.6
2017-Oct-17 01:30N 45°37' W 122°40'1 2.0
2017-Oct-17 01:00N 45°37' W 122°41'0 0.1
2017-Oct-17 00:30N 45°37' W 122°41'0 0.0
2017-Oct-17 00:00N 45°37' W 122°41'0 0.0
2017-Oct-16 23:31N 45°37' W 122°41'0 0.0
2017-Oct-16 23:00N 45°37' W 122°41'0 0.0
2017-Oct-16 22:30N 45°37' W 122°41'2 4.4
2017-Oct-16 22:00N 45°38' W 122°44'4 8.0
2017-Oct-16 21:30N 45°42' W 122°46'5 9.1
2017-Oct-16 21:00N 45°47' W 122°46'4 8.7
2017-Oct-16 20:30N 45°51' W 122°47'5 8.9
2017-Oct-16 20:00N 45°55' W 122°48'4 8.7
2017-Oct-16 19:30N 45°59' W 122°51'4 8.6
2017-Oct-16 19:00N 46°03' W 122°53'4 8.4
2017-Oct-16 18:31N 46°06' W 122°57'4 8.5
2017-Oct-16 18:01N 46°09' W 123°02'4 8.4
2017-Oct-16 17:30N 46°11' W 123°07'4 8.1
2017-Oct-16 17:00N 46°10' W 123°13'4 8.0
2017-Oct-16 16:31N 46°09' W 123°18'4 7.5
2017-Oct-16 16:00N 46°09' W 123°24'4 7.1
2017-Oct-16 15:31N 46°13' W 123°26'4 7.3
2017-Oct-16 15:00N 46°16' W 123°28'4 7.5
2017-Oct-16 14:30N 46°15' W 123°33'0 0.5
2017-Oct-16 13:30N 46°15' W 123°34'0 0.0
2017-Oct-16 13:00N 46°15' W 123°34'0 0.0
2017-Oct-16 12:30N 46°15' W 123°34'0 0.0
2017-Oct-16 12:01N 46°15' W 123°34'0 0.0
2017-Oct-16 11:30N 46°15' W 123°34'0 0.0
2017-Oct-16 11:00N 46°15' W 123°34'0 0.0
2017-Oct-16 10:30N 46°15' W 123°34'0 0.0
2017-Oct-16 10:00N 46°15' W 123°34'0 0.1
2017-Oct-16 09:30N 46°15' W 123°34'0 0.0
2017-Oct-16 09:00N 46°15' W 123°34'0 0.1
2017-Oct-16 08:30N 46°15' W 123°34'0 0.0
2017-Oct-16 08:00N 46°15' W 123°34'0 0.1
2017-Oct-16 07:22N 46°15' W 123°34'0 0.0
2017-Oct-16 07:01N 46°15' W 123°34'0 0.0
2017-Oct-16 06:30N 46°15' W 123°34'0 0.0
2017-Oct-16 06:00N 46°15' W 123°34'0 0.0
2017-Oct-16 05:30N 46°15' W 123°34'0 0.0
2017-Oct-16 05:01N 46°15' W 123°34'0 0.0
2017-Oct-16 04:30N 46°15' W 123°34'0 0.0
2017-Oct-16 04:00N 46°15' W 123°34'0 0.1
2017-Oct-16 03:31N 46°15' W 123°34'0 0.0
2017-Oct-16 03:00N 46°15' W 123°34'0 0.0
2017-Oct-16 02:30N 46°15' W 123°34'0 0.1
2017-Oct-16 02:00N 46°15' W 123°34'3 6.3
2017-Oct-16 01:30N 46°16' W 123°38'4 7.7
2017-Oct-16 01:00N 46°14' W 123°43'4 7.6
2017-Oct-16 00:30N 46°12' W 123°48'3 6.6
2017-Oct-16 00:00N 46°11' W 123°53'3 6.1
2017-Oct-15 23:30N 46°13' W 123°57'3 6.0
2017-Oct-15 23:00N 46°15' W 124°00'3 5.5
2017-Oct-15 22:30N 46°15' W 124°04'2 4.8
2017-Oct-15 22:00N 46°15' W 124°07'5 9.4
2017-Oct-15 21:30N 46°20' W 124°08'4 8.8
2017-Oct-15 21:00N 46°24' W 124°09'4 8.0
2017-Oct-15 20:30N 46°28' W 124°11'4 7.8
2017-Oct-15 20:00N 46°31' W 124°12'5 7.8
2017-Oct-15 19:25N 46°36' W 124°13'3 7.5
2017-Oct-15 19:00N 46°39' W 124°14'4 8.0
2017-Oct-15 18:30N 46°43' W 124°14'4 8.5
2017-Oct-15 18:00N 46°47' W 124°13'4 8.3
2017-Oct-15 17:30N 46°51' W 124°12'4 7.3
2017-Oct-15 17:00N 46°55' W 124°10'4 6.6
2017-Oct-15 16:28N 46°56' W 124°05'0 0.1
2017-Oct-15 16:00N 46°56' W 124°05'0 0.0
2017-Oct-15 15:24N 46°56' W 124°05'0 0.0
2017-Oct-15 14:53N 46°56' W 124°05'0 0.0
2017-Oct-15 13:53N 46°56' W 124°05'0 0.0
2017-Oct-15 13:29N 46°56' W 124°05'0 0.0
2017-Oct-15 13:00N 46°56' W 124°05'0 0.0
2017-Oct-15 12:29N 46°56' W 124°05'0 0.1
2017-Oct-15 12:00N 46°56' W 124°05'0 0.0
2017-Oct-15 11:28N 46°56' W 124°05'0 0.0
2017-Oct-15 10:57N 46°56' W 124°05'0 0.0
2017-Oct-15 10:29N 46°56' W 124°05'0 0.0
2017-Oct-15 09:46N 46°56' W 124°05'0 0.0
2017-Oct-15 09:29N 46°56' W 124°05'0 0.0
2017-Oct-15 08:49N 46°56' W 124°05'0 0.0
2017-Oct-15 04:19N 46°56' W 124°05'0 0.0
2017-Oct-15 03:57N 46°56' W 124°05'2 1.0
2017-Oct-15 02:03N 46°55' W 124°08'0 0.1
2017-Oct-15 01:41N 46°55' W 124°08'3 9.3
2017-Oct-15 01:20N 46°55' W 124°12'3 8.1
2017-Oct-15 01:00N 46°58' W 124°15'4 8.2
2017-Oct-15 00:30N 47°01' W 124°17'4 8.1
2017-Oct-15 00:00N 47°05' W 124°19'4 8.1
2017-Oct-14 23:30N 47°09' W 124°20'65 7.6
2017-Oct-14 14:52N 48°12' W 124°48'3 7.5
2017-Oct-14 14:30N 48°15' W 124°48'4 7.4
2017-Oct-14 14:00N 48°18' W 124°47'4 7.5
2017-Oct-14 13:26N 48°22' W 124°47'3 6.5
2017-Oct-14 13:00N 48°24' W 124°43'4 8.4
2017-Oct-14 12:30N 48°24' W 124°37'2 3.1
2017-Oct-14 12:00N 48°22' W 124°37'0 0.0
2017-Oct-14 11:30N 48°22' W 124°37'0 0.0
2017-Oct-14 11:00N 48°22' W 124°37'0 0.0
2017-Oct-14 10:30N 48°22' W 124°37'0 0.0
2017-Oct-14 10:00N 48°22' W 124°37'0 0.0
2017-Oct-14 09:30N 48°22' W 124°37'0 0.0
2017-Oct-14 09:00N 48°22' W 124°37'0 0.0
2017-Oct-14 08:30N 48°22' W 124°37'0 0.0
2017-Oct-14 08:00N 48°22' W 124°37'0 0.0
2017-Oct-14 07:30N 48°22' W 124°37'0 0.0
2017-Oct-14 07:00N 48°22' W 124°37'0 0.0
2017-Oct-14 06:30N 48°22' W 124°37'0 0.0
2017-Oct-14 06:00N 48°22' W 124°37'0 0.0
2017-Oct-14 05:30N 48°22' W 124°37'0 0.0
2017-Oct-14 05:00N 48°22' W 124°37'0 0.0
2017-Oct-14 04:30N 48°22' W 124°37'0 0.0
2017-Oct-14 04:00N 48°22' W 124°37'0 0.0
2017-Oct-14 03:30N 48°22' W 124°37'0 0.0
2017-Oct-14 03:00N 48°22' W 124°37'0 0.0
2017-Oct-14 02:30N 48°22' W 124°37'0 0.0
2017-Oct-14 02:00N 48°22' W 124°37'0 0.1
2017-Oct-14 01:28N 48°22' W 124°37'0 0.0
2017-Oct-14 01:00N 48°22' W 124°37'0 0.0
2017-Oct-14 00:28N 48°22' W 124°37'0 0.7
2017-Oct-13 23:59N 48°22' W 124°36'4 7.2
2017-Oct-13 23:28N 48°22' W 124°30'4 8.7
2017-Oct-13 23:00N 48°21' W 124°25'5 9.1
2017-Oct-13 22:30N 48°19' W 124°18'4 8.8
2017-Oct-13 22:00N 48°17' W 124°12'4 8.6
2017-Oct-13 21:29N 48°15' W 124°06'4 8.5
2017-Oct-13 21:00N 48°14' W 124°00'5 8.6
2017-Oct-13 20:23N 48°15' W 123°52'3 8.3
2017-Oct-13 19:58N 48°14' W 123°47'4 7.7
2017-Oct-13 19:30N 48°14' W 123°42'4 7.3
2017-Oct-13 18:59N 48°15' W 123°37'3 6.6
2017-Oct-13 18:30N 48°17' W 123°33'4 7.1
2017-Oct-13 17:57N 48°20' W 123°29'3 7.4
2017-Oct-13 17:30N 48°22' W 123°25'3 6.6
2017-Oct-13 17:00N 48°23' W 123°21'3 5.4
2017-Oct-13 16:30N 48°25' W 123°17'3 6.8
2017-Oct-13 16:00N 48°28' W 123°15'3 6.9
2017-Oct-13 15:30N 48°31' W 123°14'4 7.3
2017-Oct-13 15:00N 48°35' W 123°13'3 6.8
2017-Oct-13 14:30N 48°38' W 123°11'1 2.2
2017-Oct-13 14:00N 48°37' W 123°10'0 0.1
2017-Oct-13 13:30N 48°37' W 123°10'0 0.0
2017-Oct-13 13:00N 48°37' W 123°10'0 0.0
2017-Oct-13 12:30N 48°37' W 123°10'0 0.0
2017-Oct-13 12:00N 48°37' W 123°10'0 0.0
2017-Oct-13 11:30N 48°37' W 123°10'0 0.0
2017-Oct-13 11:00N 48°37' W 123°10'0 0.0
2017-Oct-13 10:30N 48°37' W 123°10'0 0.0
2017-Oct-13 10:00N 48°37' W 123°10'0 0.0
2017-Oct-13 09:30N 48°37' W 123°10'0 0.0
2017-Oct-13 09:00N 48°37' W 123°10'0 0.0
2017-Oct-13 08:30N 48°37' W 123°10'0 0.0
2017-Oct-13 08:00N 48°37' W 123°10'0 0.0
2017-Oct-13 07:30N 48°37' W 123°10'0 0.1
2017-Oct-13 07:00N 48°37' W 123°10'0 0.1
2017-Oct-13 06:30N 48°37' W 123°10'0 0.0
2017-Oct-13 06:00N 48°37' W 123°10'0 0.0
2017-Oct-13 05:30N 48°37' W 123°10'0 0.1
2017-Oct-13 05:00N 48°37' W 123°10'0 0.0
2017-Oct-13 04:30N 48°37' W 123°10'0 0.0
2017-Oct-13 04:00N 48°37' W 123°10'0 0.0
2017-Oct-13 03:30N 48°37' W 123°10'0 0.0
2017-Oct-13 03:00N 48°37' W 123°10'0 0.0
2017-Oct-13 02:30N 48°37' W 123°10'0 0.0
2017-Oct-13 02:00N 48°37' W 123°10'0 0.0
2017-Oct-13 01:30N 48°37' W 123°10'0 0.0
2017-Oct-13 01:00N 48°37' W 123°10'0 0.0
2017-Oct-13 00:30N 48°37' W 123°10'0 0.0
2017-Oct-13 00:00N 48°37' W 123°10'0 0.0
2017-Oct-12 23:30N 48°37' W 123°10'0 0.0
2017-Oct-12 23:00N 48°37' W 123°10'0 0.0
2017-Oct-12 22:30N 48°37' W 123°10'0 0.0
2017-Oct-12 22:00N 48°37' W 123°10'0 0.0
2017-Oct-12 21:30N 48°37' W 123°10'0 0.1
2017-Oct-12 21:00N 48°37' W 123°10'0 0.0
2017-Oct-12 20:30N 48°37' W 123°10'0 0.0
2017-Oct-12 20:00N 48°37' W 123°10'0 0.0
2017-Oct-12 19:30N 48°37' W 123°10'0 0.1
2017-Oct-12 19:00N 48°37' W 123°10'0 0.0
2017-Oct-12 18:30N 48°37' W 123°10'0 0.0
2017-Oct-12 18:00N 48°37' W 123°10'0 0.0
2017-Oct-12 17:30N 48°37' W 123°10'0 0.1
2017-Oct-12 17:00N 48°37' W 123°10'0 0.1
2017-Oct-12 16:30N 48°37' W 123°10'0 0.0
2017-Oct-12 16:00N 48°37' W 123°10'0 0.0
2017-Oct-12 15:30N 48°37' W 123°10'0 0.0
2017-Oct-12 15:00N 48°37' W 123°10'0 0.0
2017-Oct-12 14:30N 48°37' W 123°10'0 0.0
2017-Oct-12 14:00N 48°37' W 123°10'0 0.1
2017-Oct-12 13:30N 48°37' W 123°10'0 0.1
2017-Oct-12 13:00N 48°37' W 123°10'0 0.0
2017-Oct-12 12:30N 48°37' W 123°10'0 0.0
2017-Oct-12 12:00N 48°37' W 123°10'0 0.0
2017-Oct-12 11:30N 48°37' W 123°10'0 0.0
2017-Oct-12 11:00N 48°37' W 123°10'0 0.0
2017-Oct-12 10:30N 48°37' W 123°10'0 0.0
2017-Oct-12 10:00N 48°37' W 123°10'0 0.0
2017-Oct-12 09:30N 48°37' W 123°10'0 0.0
2017-Oct-12 09:00N 48°37' W 123°10'0 0.0
2017-Oct-12 08:30N 48°37' W 123°10'0 0.0
2017-Oct-12 08:00N 48°37' W 123°10'0 0.0
2017-Oct-12 07:30N 48°37' W 123°10'0 0.0
2017-Oct-12 07:00N 48°37' W 123°10'0 0.0
2017-Oct-12 06:30N 48°37' W 123°10'0 0.0
2017-Oct-12 06:00N 48°37' W 123°10'0 0.0
2017-Oct-12 05:30N 48°37' W 123°10'0 0.0
2017-Oct-12 05:00N 48°37' W 123°10'0 0.0
2017-Oct-12 04:30N 48°37' W 123°10'0 0.0
2017-Oct-12 04:00N 48°37' W 123°10'0 0.0
2017-Oct-12 03:30N 48°37' W 123°10'0 0.0
2017-Oct-12 03:00N 48°37' W 123°10'0 0.0
2017-Oct-12 02:30N 48°37' W 123°10'0 0.0
2017-Oct-12 02:00N 48°37' W 123°10'0 0.0
2017-Oct-12 01:30N 48°37' W 123°10'0 0.0
2017-Oct-12 01:00N 48°37' W 123°10'0 0.0
2017-Oct-12 00:30N 48°37' W 123°10'0 0.1
2017-Oct-12 00:00N 48°37' W 123°10'0 0.1
2017-Oct-11 23:30N 48°37' W 123°10'0 0.0
2017-Oct-11 23:00N 48°37' W 123°10'0 0.1
2017-Oct-11 22:30N 48°37' W 123°10'0 0.0
2017-Oct-11 22:00N 48°37' W 123°10'0 0.1
2017-Oct-11 21:30N 48°37' W 123°10'0 0.0
2017-Oct-11 21:00N 48°37' W 123°10'0 0.1
2017-Oct-11 20:30N 48°37' W 123°10'0 0.0
2017-Oct-11 20:00N 48°37' W 123°10'0 0.0
2017-Oct-11 19:30N 48°37' W 123°10'0 0.0
2017-Oct-11 19:00N 48°37' W 123°10'0 0.0
2017-Oct-11 18:30N 48°37' W 123°10'0 0.0
2017-Oct-11 18:00N 48°37' W 123°10'0 0.0
2017-Oct-11 17:30N 48°37' W 123°10'0 0.1
2017-Oct-11 16:59N 48°37' W 123°10'0 0.0
2017-Oct-11 00:00N 48°37' W 123°10'0 0.0
2017-Oct-10 23:30N 48°37' W 123°10'0 0.0
2017-Oct-10 23:00N 48°37' W 123°10'0 0.0
2017-Oct-10 22:30N 48°37' W 123°10'0 0.0
2017-Oct-10 22:00N 48°37' W 123°10'0 0.0
2017-Oct-10 21:30N 48°37' W 123°10'0 0.0
2017-Oct-10 21:00N 48°37' W 123°10'0 0.0
2017-Oct-10 20:30N 48°37' W 123°10'0 0.0
2017-Oct-10 20:00N 48°37' W 123°10'0 0.1
2017-Oct-10 19:30N 48°37' W 123°10'0 0.1
2017-Oct-10 19:00N 48°37' W 123°10'0 0.0
2017-Oct-10 18:30N 48°37' W 123°10'0 0.0
2017-Oct-10 18:00N 48°37' W 123°10'0 0.1
2017-Oct-10 17:30N 48°37' W 123°10'0 0.1
2017-Oct-10 17:00N 48°37' W 123°10'0 0.1
2017-Oct-10 16:30N 48°37' W 123°10'0 0.0
2017-Oct-10 16:00N 48°37' W 123°10'0 0.0
2017-Oct-10 15:30N 48°37' W 123°10'0 0.0
2017-Oct-10 15:00N 48°37' W 123°10'0 0.0
2017-Oct-10 14:00N 48°37' W 123°10'0 0.0
2017-Oct-10 13:30N 48°37' W 123°10'0 0.0
2017-Oct-10 13:00N 48°37' W 123°10'0 0.0
2017-Oct-10 12:30N 48°37' W 123°10'0 0.0
2017-Oct-10 12:00N 48°37' W 123°10'0 0.0
2017-Oct-10 11:30N 48°37' W 123°10'0 0.0
2017-Oct-10 11:00N 48°37' W 123°10'0 0.0
2017-Oct-10 10:30N 48°37' W 123°10'0 0.0
2017-Oct-10 10:00N 48°37' W 123°10'0 0.0
2017-Oct-10 09:30N 48°37' W 123°10'0 0.0
2017-Oct-10 09:00N 48°37' W 123°10'0 0.0
2017-Oct-10 08:30N 48°37' W 123°10'0 0.0
2017-Oct-10 08:00N 48°37' W 123°10'0 0.0
2017-Oct-10 07:30N 48°37' W 123°10'0 0.0
2017-Oct-10 07:00N 48°37' W 123°10'0 0.0
2017-Oct-10 06:30N 48°37' W 123°10'0 0.0
2017-Oct-10 06:00N 48°37' W 123°10'0 0.0
2017-Oct-10 05:30N 48°37' W 123°10'0 0.0
2017-Oct-10 05:00N 48°37' W 123°10'0 0.0
2017-Oct-10 04:30N 48°37' W 123°10'0 0.0
2017-Oct-10 04:00N 48°37' W 123°10'0 0.0
2017-Oct-10 03:30N 48°37' W 123°10'0 0.0
2017-Oct-10 03:00N 48°37' W 123°10'0 0.0
2017-Oct-10 02:30N 48°37' W 123°10'0 0.0
2017-Oct-10 02:00N 48°37' W 123°10'0 0.0
2017-Oct-10 01:30N 48°37' W 123°10'0 0.0
2017-Oct-10 01:00N 48°37' W 123°10'0 0.0
2017-Oct-10 00:30N 48°37' W 123°10'0 0.0
2017-Oct-10 00:00N 48°37' W 123°10'0 0.0
2017-Oct-09 23:30N 48°37' W 123°10'0 0.0
2017-Oct-09 23:00N 48°37' W 123°10'0 0.0
2017-Oct-09 22:30N 48°37' W 123°10'0 0.0
2017-Oct-09 22:00N 48°37' W 123°10'0 0.0
2017-Oct-09 21:29N 48°37' W 123°10'0 0.0
2017-Oct-09 21:00N 48°37' W 123°10'0 0.1
2017-Oct-09 20:30N 48°37' W 123°10'0 0.0
2017-Oct-09 20:00N 48°37' W 123°10'0 0.1
2017-Oct-09 19:30N 48°37' W 123°10'0 0.0
2017-Oct-09 19:00N 48°37' W 123°10'0 0.0
2017-Oct-09 18:30N 48°37' W 123°10'0 0.0
2017-Oct-09 18:00N 48°37' W 123°10'0 0.1
2017-Oct-09 17:30N 48°37' W 123°10'0 0.1
2017-Oct-09 17:00N 48°37' W 123°10'0 0.0
2017-Oct-09 16:30N 48°37' W 123°10'0 0.0
2017-Oct-09 16:00N 48°37' W 123°10'0 0.0
2017-Oct-09 15:30N 48°37' W 123°10'0 0.0
2017-Oct-09 14:59N 48°37' W 123°10'0 0.0
2017-Oct-09 14:30N 48°37' W 123°10'0 0.0
2017-Oct-09 14:00N 48°37' W 123°10'0 0.0
2017-Oct-09 13:30N 48°37' W 123°10'0 0.0
2017-Oct-09 13:00N 48°37' W 123°10'0 0.1
2017-Oct-09 12:30N 48°37' W 123°10'0 0.1
2017-Oct-09 12:00N 48°37' W 123°10'0 0.0
2017-Oct-09 11:30N 48°37' W 123°10'0 0.0
2017-Oct-09 11:00N 48°37' W 123°10'0 0.0
2017-Oct-09 10:30N 48°37' W 123°10'0 0.0
2017-Oct-09 10:00N 48°37' W 123°10'0 0.0
2017-Oct-09 09:30N 48°37' W 123°10'0 0.0
2017-Oct-09 09:00N 48°37' W 123°10'0 0.0
2017-Oct-09 08:30N 48°37' W 123°10'0 0.0
2017-Oct-09 08:00N 48°37' W 123°10'0 0.0
2017-Oct-09 07:30N 48°37' W 123°10'0 0.0
2017-Oct-09 07:00N 48°37' W 123°10'0 0.0
2017-Oct-09 06:30N 48°37' W 123°10'0 0.0
2017-Oct-09 06:00N 48°37' W 123°10'0 0.0
2017-Oct-09 05:30N 48°37' W 123°10'0 0.0
2017-Oct-09 05:00N 48°37' W 123°10'0 0.0
2017-Oct-09 04:30N 48°37' W 123°10'0 0.0
2017-Oct-09 04:00N 48°37' W 123°10'0 0.0
2017-Oct-09 03:30N 48°37' W 123°10'0 0.0
2017-Oct-09 03:00N 48°37' W 123°10'0 0.1
2017-Oct-09 02:30N 48°37' W 123°10'0 0.1
2017-Oct-09 02:00N 48°37' W 123°10'0 0.0
2017-Oct-09 01:30N 48°37' W 123°10'0 0.0
2017-Oct-09 01:00N 48°37' W 123°10'0 0.0
2017-Oct-09 00:30N 48°37' W 123°10'0 0.0
2017-Oct-09 00:00N 48°37' W 123°10'0 0.0
2017-Oct-08 23:30N 48°37' W 123°10'0 0.0
2017-Oct-08 23:00N 48°37' W 123°10'0 0.0
2017-Oct-08 22:30N 48°37' W 123°10'0 0.0
2017-Oct-08 22:00N 48°37' W 123°10'0 0.0
2017-Oct-08 21:30N 48°37' W 123°10'0 0.0
2017-Oct-08 21:00N 48°37' W 123°10'0 0.0
2017-Oct-08 20:30N 48°37' W 123°10'0 0.0
2017-Oct-08 20:00N 48°37' W 123°10'0 0.0
2017-Oct-08 19:30N 48°37' W 123°10'0 0.0
2017-Oct-08 19:00N 48°37' W 123°10'0 0.0
2017-Oct-08 18:30N 48°37' W 123°10'0 0.0
2017-Oct-08 17:59N 48°37' W 123°10'0 0.0
2017-Oct-08 17:30N 48°37' W 123°10'0 0.0
2017-Oct-08 17:00N 48°37' W 123°10'0 0.0
2017-Oct-08 16:30N 48°37' W 123°10'0 0.1
2017-Oct-08 16:00N 48°37' W 123°10'0 0.1
2017-Oct-08 15:30N 48°37' W 123°10'0 0.1
2017-Oct-08 15:00N 48°37' W 123°10'0 0.0
2017-Oct-08 14:30N 48°37' W 123°10'0 0.1
2017-Oct-08 14:00N 48°37' W 123°10'0 0.1
2017-Oct-08 13:30N 48°37' W 123°10'0 0.0
2017-Oct-08 13:00N 48°37' W 123°10'0 0.0
2017-Oct-08 12:30N 48°37' W 123°10'0 0.0
2017-Oct-08 12:00N 48°37' W 123°10'0 0.1
2017-Oct-08 11:30N 48°37' W 123°10'0 0.1
2017-Oct-08 11:00N 48°37' W 123°10'0 0.0
2017-Oct-08 10:30N 48°37' W 123°10'0 0.0
2017-Oct-08 10:00N 48°37' W 123°10'0 0.0
2017-Oct-08 09:30N 48°37' W 123°10'0 0.0
2017-Oct-08 09:00N 48°37' W 123°10'0 0.0
2017-Oct-08 08:30N 48°37' W 123°10'0 0.0
2017-Oct-08 08:00N 48°37' W 123°10'0 0.1
2017-Oct-08 07:30N 48°37' W 123°10'0 0.0
2017-Oct-08 07:00N 48°37' W 123°10'0 0.0
2017-Oct-08 06:30N 48°37' W 123°10'0 0.0
2017-Oct-08 06:00N 48°37' W 123°10'0 0.0
2017-Oct-08 05:30N 48°37' W 123°10'0 0.1
2017-Oct-08 05:00N 48°37' W 123°10'0 0.0
2017-Oct-08 04:30N 48°37' W 123°10'0 0.1
2017-Oct-08 04:00N 48°37' W 123°10'0 0.0
2017-Oct-08 03:30N 48°37' W 123°10'0 0.0
2017-Oct-08 03:00N 48°37' W 123°10'0 0.0
2017-Oct-08 02:30N 48°37' W 123°10'0 0.0
2017-Oct-08 02:00N 48°37' W 123°10'0 0.0
2017-Oct-08 01:30N 48°37' W 123°10'0 0.1
2017-Oct-08 01:00N 48°37' W 123°10'0 0.0
2017-Oct-08 00:30N 48°37' W 123°10'0 0.0
2017-Oct-08 00:00N 48°37' W 123°10'0 0.0
2017-Oct-07 23:30N 48°37' W 123°10'0 0.0
2017-Oct-07 23:00N 48°37' W 123°10'0 0.0
2017-Oct-07 22:30N 48°37' W 123°10'0 0.0
2017-Oct-07 22:00N 48°37' W 123°10'  

Dump ship's entire track history